Strona główna
METAR-TAF:

METAR-TAF

Lotnisko :

Pottstown Limerick Airport

Pottstown, Pensylwania, Stany Zjednoczone

Szerokość geograficzna: 40-14-18N, Długość geograficzna: 075-33-26W, wysokość: 89 m

Aktualna obserwacja pogody

Raport powstał 30 minut temu, godzina 05:54 UTC
Wiatr 8 kt od południe, zmienny między południowo-południowy wschód i południowy zachód
Temperatura 11°C
Wilgotność 100%
Ciśnienie 1011 hPa
Widzialność: 6.4 km
Zachmurzenie całkowite na wysokości 1400 ft
słaby deszcz, zamglenie

METAR: KPTW 240554Z AUTO 19008KT 150V220 4SM -RA BR OVC014 11/11 A2986 RMK AO2 RAB36 SLP110 P0000 60000 T01110111 10122 20050 56020 TSNO

czas: 01:24 (06:24 UTC)


TAF: brakujący

Obserwacja i prognoza pogody dla ponad 4000 lotnisk (raport METAR i TAF).

Dostępne stacje oznaczono żółtymi i czerwonymi punktami na mapie.

Najedź kursorem aby zobaczyć nazwę stacji.

Kliknij aby zobaczyć obserwacje i prognozy pogody.

Aby zmienić mapę: kliknij na zielony przycisk z czarnym krzyżykiem, aby powiększyć; na zielony przycisk z myślnikiem, aby pomniejszyć; na zielone strzałki, aby przejść do map sąsiednich.


METAR-TAF: